Time;durP1;ratioP1;P1;durP2;ratioP2;P2;SDS_P1;SDS_P2;PMS_P1;PMS_P2;Temp;Humidity;BMP_temperature;BMP_pressure;BME280_temperature;BME280_humidity;BME280_pressure;Samples;Min_cycle;Max_cycle;Signal;HPM_P1;HPM_P2
2021/01/07 00:02:22;;;;;;;11.52;2.22;;;17.50;99.90;;;;;;4165995;34;20412;-87
2021/01/07 00:04:51;;;;;;;9.93;2.03;;;17.60;99.90;;;;;;4158652;34;20161;-87
2021/01/07 00:07:19;;;;;;;13.68;1.98;;;17.60;99.90;;;;;;4162283;34;20059;-87
2021/01/07 00:09:47;;;;;;;10.00;1.85;;;17.60;99.90;;;;;;4165257;34;20113;-87
2021/01/07 00:12:15;;;;;;;10.02;1.55;;;17.60;99.90;;;;;;4157376;34;20096;-87
2021/01/07 00:14:43;;;;;;;9.73;1.60;;;17.60;99.90;;;;;;4167748;34;20052;-87
2021/01/07 00:17:11;;;;;;;10.95;2.20;;;17.70;99.90;;;;;;4153857;34;20068;-87
2021/01/07 00:19:39;;;;;;;13.70;1.87;;;17.70;99.90;;;;;;4163405;34;20132;-88
2021/01/07 00:22:07;;;;;;;9.13;1.60;;;17.80;99.90;;;;;;4166197;34;20132;-87
2021/01/07 00:24:35;;;;;;;10.32;2.75;;;17.80;99.90;;;;;;4157940;34;20278;-87
2021/01/07 00:27:04;;;;;;;11.52;2.87;;;17.80;99.90;;;;;;4159030;34;20139;-87
2021/01/07 00:29:32;;;;;;;6.53;3.50;;;17.90;99.90;;;;;;4165785;34;20130;-87
2021/01/07 00:31:59;;;;;;;17.50;5.87;;;17.90;99.90;;;;;;4166327;34;20581;-87
2021/01/07 00:34:28;;;;;;;14.20;4.57;;;17.90;99.90;;;;;;4165861;34;20077;-87
2021/01/07 00:36:56;;;;;;;16.48;5.12;;;17.90;99.90;;;;;;4154733;34;20056;-87
2021/01/07 00:39:25;;;;;;;7.15;4.60;;;17.90;99.90;;;;;;4159503;34;20182;-87
2021/01/07 00:41:55;;;;;;;23.15;5.50;;;17.90;99.90;;;;;;4145195;34;20224;-88
2021/01/07 00:44:23;;;;;;;12.98;5.37;;;17.90;99.90;;;;;;4158236;34;20063;-87
2021/01/07 00:46:51;;;;;;;9.95;5.20;;;17.90;99.90;;;;;;4158338;34;20700;-87
2021/01/07 00:49:20;;;;;;;13.98;4.80;;;17.80;99.90;;;;;;4150136;34;20637;-87
2021/01/07 00:51:49;;;;;;;14.32;4.68;;;17.80;99.90;;;;;;4163358;34;20508;-86
2021/01/07 00:54:18;;;;;;;10.70;5.43;;;17.70;99.90;;;;;;4160290;34;20075;-88
2021/01/07 00:56:46;;;;;;;6.00;3.97;;;17.70;99.90;;;;;;4163974;34;20090;-87
2021/01/07 00:59:16;;;;;;;11.68;3.95;;;17.60;99.90;;;;;;4159780;34;20500;-87
2021/01/07 01:01:48;;;;;;;9.05;4.25;;;17.60;99.90;;;;;;4165845;34;20056;-88
2021/01/07 01:04:17;;;;;;;8.30;4.82;;;17.50;99.90;;;;;;4153486;34;20090;-88
2021/01/07 01:06:45;;;;;;;11.73;4.40;;;17.50;99.90;;;;;;4142416;34;20144;-86
2021/01/07 01:09:13;;;;;;;14.32;4.03;;;17.50;99.90;;;;;;4153962;34;20483;-87
2021/01/07 01:11:44;;;;;;;12.00;2.95;;;17.50;99.90;;;;;;4163014;34;20117;-87
2021/01/07 01:14:13;;;;;;;5.07;1.83;;;17.50;99.90;;;;;;4160846;34;20093;-87
2021/01/07 01:16:42;;;;;;;8.13;1.87;;;17.60;99.90;;;;;;4161192;34;20095;-88
2021/01/07 01:19:09;;;;;;;9.82;2.72;;;17.60;99.90;;;;;;4146308;34;20128;-87
2021/01/07 01:21:37;;;;;;;10.68;2.37;;;17.60;99.90;;;;;;4166450;34;20130;-87
2021/01/07 01:24:06;;;;;;;8.13;1.90;;;17.60;99.90;;;;;;4158800;34;20520;-88
2021/01/07 01:26:34;;;;;;;8.88;1.83;;;17.50;99.90;;;;;;4157480;34;20060;-87
2021/01/07 01:29:02;;;;;;;10.65;2.30;;;17.50;99.90;;;;;;4162011;34;20067;-88
2021/01/07 01:31:30;;;;;;;7.28;2.03;;;17.50;99.90;;;;;;4156102;34;20074;-87
2021/01/07 01:33:58;;;;;;;8.05;1.73;;;17.50;99.90;;;;;;4162910;34;20526;-88
2021/01/07 01:36:27;;;;;;;10.27;2.55;;;17.50;99.90;;;;;;4158664;34;20117;-88
2021/01/07 01:38:55;;;;;;;9.18;1.90;;;17.50;99.90;;;;;;4144834;34;20218;-87
2021/01/07 01:41:23;;;;;;;11.27;2.28;;;17.50;99.90;;;;;;4151876;34;20062;-88
2021/01/07 01:43:51;;;;;;;8.55;2.62;;;17.40;99.90;;;;;;4161164;34;20089;-87
2021/01/07 01:46:19;;;;;;;17.52;4.07;;;17.40;99.90;;;;;;4139781;34;20145;-87
2021/01/07 01:48:48;;;;;;;14.38;3.70;;;17.40;99.90;;;;;;4147260;34;20148;-88
2021/01/07 01:51:16;;;;;;;8.45;2.80;;;17.40;99.90;;;;;;4157230;34;20481;-87
2021/01/07 01:53:45;;;;;;;17.40;3.37;;;17.40;99.90;;;;;;4164163;34;20341;-87
2021/01/07 01:56:15;;;;;;;13.13;3.12;;;17.40;99.90;;;;;;4156727;34;20476;-88
2021/01/07 01:58:44;;;;;;;18.67;2.75;;;17.40;99.90;;;;;;4159021;34;20068;-88
2021/01/07 02:01:11;;;;;;;9.68;1.90;;;17.40;99.90;;;;;;4146464;34;20139;-88
2021/01/07 02:03:41;;;;;;;9.60;2.75;;;17.30;99.90;;;;;;4159555;34;20064;-87
2021/01/07 02:06:12;;;;;;;13.07;2.60;;;17.30;99.90;;;;;;4158040;34;20448;-88
2021/01/07 02:08:45;;;;;;;8.52;1.75;;;17.20;99.90;;;;;;4159549;34;20497;-87
2021/01/07 02:11:15;;;;;;;10.20;1.42;;;17.20;99.90;;;;;;4159854;34;20070;-87
2021/01/07 02:13:47;;;;;;;8.77;1.90;;;17.20;99.90;;;;;;4162794;34;20074;-88
2021/01/07 02:16:23;;;;;;;18.05;1.90;;;17.20;99.90;;;;;;4153650;34;20123;-87
2021/01/07 02:18:55;;;;;;;20.45;2.15;;;17.20;99.90;;;;;;4148855;34;20056;-88
2021/01/07 02:21:24;;;;;;;18.55;1.58;;;17.20;99.90;;;;;;4158456;34;20083;-87
2021/01/07 02:23:54;;;;;;;6.22;1.62;;;17.20;99.90;;;;;;4158352;34;20373;-87
2021/01/07 02:26:23;;;;;;;11.70;1.35;;;17.20;99.90;;;;;;4153152;34;20048;-88
2021/01/07 02:28:52;;;;;;;9.55;1.83;;;17.20;99.90;;;;;;4152753;34;20064;-88
2021/01/07 02:31:19;;;;;;;10.43;2.08;;;17.20;99.90;;;;;;4151941;34;20145;-87
2021/01/07 02:33:47;;;;;;;7.62;1.85;;;17.10;99.90;;;;;;4143164;34;20130;-87
2021/01/07 02:36:16;;;;;;;7.80;1.87;;;17.20;99.90;;;;;;4145449;34;20531;-88
2021/01/07 02:38:43;;;;;;;15.82;1.83;;;17.20;99.90;;;;;;4158124;34;20051;-88
2021/01/07 02:41:11;;;;;;;16.00;1.98;;;17.20;99.90;;;;;;4145495;34;20578;-87
2021/01/07 02:43:40;;;;;;;8.25;1.58;;;17.30;99.90;;;;;;4158747;34;20147;-90
2021/01/07 02:46:08;;;;;;;13.43;2.12;;;17.30;99.90;;;;;;4157900;34;20095;-87
2021/01/07 02:48:35;;;;;;;13.13;2.15;;;17.40;99.90;;;;;;4162031;34;20429;-87
2021/01/07 02:51:04;;;;;;;12.82;2.10;;;17.40;99.90;;;;;;4155952;34;20110;-88
2021/01/07 02:53:33;;;;;;;12.93;2.22;;;17.40;99.90;;;;;;4161962;34;20076;-88
2021/01/07 02:56:01;;;;;;;15.50;4.43;;;17.40;99.90;;;;;;4152097;34;20508;-88
2021/01/07 02:58:38;;;;;;;10.52;5.53;;;17.40;99.90;;;;;;4166905;34;20052;-87
2021/01/07 03:01:06;;;;;;;8.90;7.65;;;17.40;99.90;;;;;;4162684;34;20498;-86
2021/01/07 03:03:34;;;;;;;17.45;9.00;;;17.40;99.90;;;;;;4163944;34;20064;-87
2021/01/07 03:06:02;;;;;;;15.75;7.30;;;17.40;99.90;;;;;;4153701;34;20176;-87
2021/01/07 03:08:30;;;;;;;8.55;1.83;;;17.50;99.90;;;;;;4165017;34;20151;-87
2021/01/07 04:42:32;;;;;;;17.33;8.65;;;17.50;99.90;;;;;;4405083;28;20006;-87
2021/01/07 04:45:02;;;;;;;17.60;6.07;;;17.60;99.90;;;;;;4135982;34;20065;-88
2021/01/07 04:47:30;;;;;;;13.23;2.08;;;17.60;99.90;;;;;;4120505;34;20056;-87
2021/01/07 04:49:58;;;;;;;49.40;45.10;;;17.60;99.90;;;;;;4133879;34;20441;-88
2021/01/07 04:52:27;;;;;;;13.50;2.45;;;17.60;99.90;;;;;;4129551;34;20118;-88
2021/01/07 04:54:55;;;;;;;12.00;2.92;;;17.60;99.90;;;;;;4134420;34;20072;-87
2021/01/07 04:57:24;;;;;;;17.52;12.00;;;17.60;99.90;;;;;;4133700;34;20100;-87
2021/01/07 04:59:52;;;;;;;9.07;1.83;;;17.60;99.90;;;;;;4131865;34;20132;-88
2021/01/07 05:02:21;;;;;;;13.73;2.45;;;17.60;99.90;;;;;;4130192;34;20048;-87
2021/01/07 05:04:53;;;;;;;19.90;2.12;;;17.60;99.90;;;;;;4133153;34;20141;-87
2021/01/07 05:07:22;;;;;;;13.38;2.45;;;17.60;99.90;;;;;;4135012;34;20134;-88
2021/01/07 05:10:05;;;;;;;11.45;1.73;;;17.60;99.90;;;;;;4133050;34;20516;-87
2021/01/07 05:12:35;;;;;;;17.42;2.78;;;17.70;99.90;;;;;;4126365;34;20159;-88
2021/01/07 05:15:06;;;;;;;16.12;3.45;;;17.70;99.90;;;;;;4132024;34;20049;-89
2021/01/07 05:17:36;;;;;;;36.42;33.70;;;17.70;99.90;;;;;;4137683;34;20082;-88
2021/01/07 05:20:12;;;;;;;14.23;2.62;;;17.80;99.90;;;;;;4133425;34;20204;-87
2021/01/07 05:22:42;;;;;;;10.57;2.37;;;17.90;99.90;;;;;;4118053;34;20190;-89
2021/01/07 05:25:15;;;;;;;15.10;4.35;;;17.90;99.90;;;;;;4131461;34;20722;-87
2021/01/07 05:27:44;;;;;;;15.38;2.53;;;18.00;99.90;;;;;;4128751;34;20467;-88
2021/01/07 05:30:12;;;;;;;8.10;1.52;;;18.00;99.90;;;;;;4127433;34;20827;-87
2021/01/07 05:32:43;;;;;;;9.55;1.60;;;18.00;99.90;;;;;;4130147;34;20087;-87
2021/01/07 05:35:20;;;;;;;12.85;1.73;;;18.00;99.90;;;;;;4131772;34;20069;-88
2021/01/07 05:37:48;;;;;;;15.32;2.40;;;18.00;99.90;;;;;;4127168;34;20100;-87
2021/01/07 05:40:17;;;;;;;16.85;2.75;;;18.00;99.90;;;;;;4130619;34;20079;-88
2021/01/07 05:42:46;;;;;;;16.92;1.42;;;18.00;99.90;;;;;;4123925;34;20140;-87
2021/01/07 05:45:17;;;;;;;17.33;2.28;;;18.00;99.90;;;;;;4132371;34;21253;-87
2021/01/07 05:47:49;;;;;;;9.38;1.70;;;18.00;99.90;;;;;;4138778;34;20115;-87
2021/01/07 05:50:20;;;;;;;9.85;1.83;;;18.00;99.90;;;;;;4124538;34;20064;-88
2021/01/07 05:52:49;;;;;;;11.43;5.72;;;18.00;99.90;;;;;;4134841;34;20173;-87
2021/01/07 05:55:19;;;;;;;17.23;2.25;;;18.10;99.90;;;;;;4133995;34;20182;-87
2021/01/07 05:57:47;;;;;;;12.93;10.57;;;18.00;99.90;;;;;;4133553;34;20075;-87
2021/01/07 06:00:17;;;;;;;13.48;10.65;;;18.00;99.90;;;;;;4129358;34;20064;-86
2021/01/07 06:02:45;;;;;;;14.48;13.05;;;18.00;99.90;;;;;;4138724;34;20061;-88
2021/01/07 06:05:15;;;;;;;15.40;9.13;;;17.90;99.90;;;;;;4124487;34;20131;-88
2021/01/07 06:07:43;;;;;;;7.40;1.60;;;17.90;99.90;;;;;;4142057;34;20060;-88
2021/01/07 06:10:15;;;;;;;12.32;2.45;;;17.90;99.90;;;;;;4136717;34;20060;-88
2021/01/07 06:12:43;;;;;;;11.93;2.00;;;18.00;99.90;;;;;;4122681;34;20046;-87
2021/01/07 06:15:13;;;;;;;6.85;1.83;;;18.00;99.90;;;;;;4132090;34;20049;-87
2021/01/07 06:17:42;;;;;;;11.15;2.00;;;17.90;99.90;;;;;;4132784;34;20083;-87
2021/01/07 06:20:15;;;;;;;16.42;2.08;;;17.90;99.90;;;;;;4134386;34;20481;-88
2021/01/07 06:22:50;;;;;;;11.23;1.50;;;17.90;99.90;;;;;;4127946;34;20150;-87
2021/01/07 06:25:20;;;;;;;8.35;1.90;;;17.90;99.90;;;;;;4131504;34;20119;-87
2021/01/07 06:27:50;;;;;;;8.77;1.83;;;17.90;99.90;;;;;;4140304;34;20494;-87
2021/01/07 06:30:18;;;;;;;13.82;2.58;;;17.90;99.90;;;;;;4138430;34;20481;-86
2021/01/07 06:32:49;;;;;;;9.00;2.20;;;17.90;99.90;;;;;;4133162;34;20064;-87
2021/01/07 06:35:18;;;;;;;13.43;2.90;;;17.90;99.90;;;;;;4121633;34;20622;-87
2021/01/07 06:37:51;;;;;;;8.70;1.48;;;17.90;99.90;;;;;;4132281;34;20698;-88
2021/01/07 06:40:23;;;;;;;10.50;2.20;;;17.90;99.90;;;;;;4127658;34;20065;-87
2021/01/07 06:42:53;;;;;;;13.90;2.42;;;17.90;99.90;;;;;;4131232;34;20118;-87
2021/01/07 06:45:24;;;;;;;11.90;2.15;;;17.90;99.90;;;;;;4132965;34;20536;-87
2021/01/07 06:47:54;;;;;;;12.85;2.95;;;17.90;99.90;;;;;;4130243;34;20065;-88
2021/01/07 06:50:24;;;;;;;14.87;2.12;;;17.90;99.90;;;;;;4127703;34;20134;-87
2021/01/07 06:52:52;;;;;;;19.83;4.03;;;17.90;99.90;;;;;;4129717;34;20042;-87
2021/01/07 06:55:21;;;;;;;12.73;11.70;;;17.90;99.90;;;;;;4130105;34;20060;-87
2021/01/07 06:57:54;;;;;;;16.08;14.70;;;17.90;99.90;;;;;;4130379;34;20099;-87
2021/01/07 07:00:24;;;;;;;18.20;16.65;;;17.80;99.90;;;;;;4129984;34;20132;-87
2021/01/07 07:03:23;;;;;;;10.90;6.18;;;17.80;99.90;;;;;;4131573;34;20092;-87
2021/01/07 07:05:55;;;;;;;21.40;9.68;;;17.80;99.90;;;;;;4132435;34;20223;-89
2021/01/07 07:08:38;;;;;;;9.35;2.80;;;17.80;99.90;;;;;;4129964;34;20082;-88
2021/01/07 07:11:09;;;;;;;12.55;1.70;;;17.80;99.90;;;;;;4127074;34;20147;-87
2021/01/07 07:13:43;;;;;;;15.80;2.50;;;17.90;99.90;;;;;;4133064;34;20061;-87
2021/01/07 07:16:15;;;;;;;8.05;1.62;;;17.90;99.90;;;;;;4137265;34;20059;-87
2021/01/07 07:18:43;;;;;;;14.52;9.57;;;18.10;99.90;;;;;;4130576;34;20502;-87
2021/01/07 07:21:17;;;;;;;11.57;1.83;;;18.10;99.90;;;;;;4131844;34;20405;-88
2021/01/07 07:23:46;;;;;;;7.10;1.80;;;18.10;99.90;;;;;;4132828;34;20441;-87
2021/01/07 07:26:31;;;;;;;12.00;7.47;;;18.10;99.90;;;;;;4129021;34;20079;-87
2021/01/07 07:29:04;;;;;;;11.15;2.28;;;18.10;99.90;;;;;;4133307;34;20400;-89
2021/01/07 07:31:37;;;;;;;13.48;2.92;;;18.10;99.90;;;;;;4132382;34;20128;-88
2021/01/07 07:34:06;;;;;;;19.92;2.60;;;18.10;99.90;;;;;;4130583;34;20155;-88
2021/01/07 07:36:35;;;;;;;18.27;3.20;;;18.10;99.90;;;;;;4130843;34;20084;-88
2021/01/07 07:39:05;;;;;;;34.83;31.60;;;18.20;99.90;;;;;;4126668;34;20132;-88
2021/01/07 07:41:45;;;;;;;28.80;25.88;;;18.20;99.90;;;;;;4130661;34;20108;-88
2021/01/07 07:44:14;;;;;;;18.62;1.92;;;18.20;99.90;;;;;;4128341;34;20438;-88
2021/01/07 07:46:43;;;;;;;15.27;2.33;;;18.20;99.90;;;;;;4126917;34;20069;-87
2021/01/07 07:49:12;;;;;;;19.17;2.37;;;18.20;99.90;;;;;;4117158;34;20457;-88
2021/01/07 07:51:40;;;;;;;9.70;1.83;;;18.20;99.90;;;;;;4141844;34;20110;-87
2021/01/07 07:54:12;;;;;;;8.93;1.83;;;18.20;99.90;;;;;;4141445;34;20491;-88
2021/01/07 07:56:40;;;;;;;9.73;2.17;;;18.20;99.90;;;;;;4142177;34;20049;-89
2021/01/07 07:59:11;;;;;;;21.73;9.10;;;18.20;99.90;;;;;;4146472;34;20469;-87
2021/01/07 08:01:48;;;;;;;13.93;1.60;;;18.30;99.90;;;;;;4138352;34;20366;-89
2021/01/07 08:04:26;;;;;;;9.93;2.67;;;18.40;99.90;;;;;;4147207;34;20071;-87
2021/01/07 08:06:54;;;;;;;9.07;1.30;;;18.40;99.90;;;;;;4139722;34;20482;-90
2021/01/07 08:09:22;;;;;;;18.08;2.20;;;18.50;99.90;;;;;;4131121;34;20063;-89
2021/01/07 08:11:53;;;;;;;11.15;3.17;;;18.50;99.90;;;;;;4147245;34;20613;-88
2021/01/07 08:14:24;;;;;;;6.53;1.67;;;18.60;99.90;;;;;;4151318;34;20496;-88
2021/01/07 08:16:57;;;;;;;9.27;1.92;;;18.60;99.90;;;;;;4148305;34;20186;-88
2021/01/07 08:19:36;;;;;;;9.27;4.00;;;18.70;99.90;;;;;;4139424;34;20072;-87
2021/01/07 08:22:04;;;;;;;17.12;10.93;;;18.90;99.90;;;;;;4142066;34;20479;-87
2021/01/07 08:24:32;;;;;;;19.12;17.15;;;19.00;99.90;;;;;;4140353;34;20064;-89
2021/01/07 08:27:07;;;;;;;7.12;1.58;;;19.50;99.90;;;;;;4130065;34;20118;-88
2021/01/07 08:29:41;;;;;;;16.98;13.00;;;19.80;99.90;;;;;;4141213;34;20060;-90
2021/01/07 08:32:12;;;;;;;8.05;2.95;;;19.80;99.90;;;;;;4147371;34;20087;-88
2021/01/07 08:34:40;;;;;;;10.00;8.75;;;20.20;99.90;;;;;;4146078;34;20065;-89
2021/01/07 08:37:11;;;;;;;5.35;2.20;;;21.10;99.90;;;;;;4145384;34;20118;-89
2021/01/07 08:39:41;;;;;;;11.50;2.85;;;22.40;99.90;;;;;;4150791;34;20507;-90
2021/01/07 08:42:10;;;;;;;11.75;4.97;;;22.40;99.90;;;;;;4145468;34;20064;-90
2021/01/07 08:44:38;;;;;;;10.63;7.97;;;22.20;99.90;;;;;;4137184;34;20096;-88
2021/01/07 08:47:23;;;;;;;8.02;6.97;;;22.40;99.90;;;;;;4149390;34;20083;-88
2021/01/07 08:50:01;;;;;;;6.62;2.62;;;24.30;99.90;;;;;;4155521;34;20061;-89
2021/01/07 08:52:30;;;;;;;8.85;1.65;;;23.80;99.20;;;;;;4138348;34;20068;-88
2021/01/07 08:54:58;;;;;;;8.82;1.58;;;22.60;99.90;;;;;;4146079;34;20406;-88
2021/01/07 08:57:26;;;;;;;4.90;1.67;;;22.20;99.90;;;;;;4142429;34;20591;-88
2021/01/07 08:59:54;;;;;;;6.28;2.47;;;22.40;99.90;;;;;;4130267;34;20750;-89
2021/01/07 09:02:22;;;;;;;5.82;1.85;;;24.10;99.50;;;;;;4142433;34;20106;-89
2021/01/07 09:04:51;;;;;;;4.90;2.50;;;23.30;98.60;;;;;;4153689;34;20110;-90
2021/01/07 09:07:20;;;;;;;6.28;2.03;;;24.50;97.30;;;;;;4144723;34;20100;-89
2021/01/07 09:09:54;;;;;;;4.28;3.10;;;24.90;96.40;;;;;;4141548;34;20100;-89
2021/01/07 09:12:28;;;;;;;4.82;2.85;;;25.80;95.10;;;;;;4142409;34;20100;-90
2021/01/07 09:15:06;;;;;;;3.90;2.20;;;27.10;92.40;;;;;;4137677;34;20083;-90
2021/01/07 09:17:49;;;;;;;6.78;2.20;;;27.90;90.20;;;;;;4145984;34;20117;-89
2021/01/07 09:20:20;;;;;;;6.43;2.50;;;27.20;90.00;;;;;;4134352;34;20165;-90
2021/01/07 09:22:49;;;;;;;6.00;2.50;;;27.80;86.70;;;;;;4138381;34;20122;-90
2021/01/07 09:25:19;;;;;;;4.75;2.15;;;27.90;84.10;;;;;;4138176;34;20083;-91
2021/01/07 09:27:51;;;;;;;4.12;2.72;;;28.40;82.70;;;;;;4146521;34;20075;-89
2021/01/07 09:30:20;;;;;;;7.23;2.80;;;28.50;81.60;;;;;;4134901;34;20426;-89
2021/01/07 09:32:48;;;;;;;5.87;2.40;;;29.30;80.60;;;;;;4137727;34;20120;-90
2021/01/07 09:35:16;;;;;;;4.70;2.58;;;29.70;79.60;;;;;;4138117;34;20122;-90
2021/01/07 09:38:01;;;;;;;2.83;2.17;;;30.10;76.60;;;;;;4140432;34;20139;-89
2021/01/07 09:40:29;;;;;;;7.82;2.00;;;29.20;79.00;;;;;;4130772;34;20459;-89
2021/01/07 09:42:57;;;;;;;3.15;1.12;;;28.50;78.80;;;;;;4144671;34;20075;-89
2021/01/07 09:45:26;;;;;;;7.12;3.03;;;27.00;84.80;;;;;;4151431;34;20076;-89
2021/01/07 09:47:53;;;;;;;4.22;1.42;;;27.80;85.70;;;;;;4143227;34;20127;-90
2021/01/07 09:50:22;;;;;;;4.35;1.40;;;26.30;88.40;;;;;;4140204;34;20515;-88
2021/01/07 09:52:50;;;;;;;6.07;1.12;;;25.10;91.70;;;;;;4144557;34;20083;-89
2021/01/07 09:55:18;;;;;;;4.10;1.30;;;24.40;94.40;;;;;;4143094;34;20103;-89
2021/01/07 09:57:49;;;;;;;4.20;1.60;;;24.00;95.70;;;;;;4140438;34;20583;-88
2021/01/07 10:00:18;;;;;;;6.43;2.90;;;24.00;95.90;;;;;;4137365;34;20078;-88
2021/01/07 10:02:46;;;;;;;7.95;1.50;;;24.00;97.60;;;;;;4140894;34;20128;-89
2021/01/07 10:05:14;;;;;;;8.85;1.60;;;23.60;96.90;;;;;;4138636;34;20080;-88
2021/01/07 10:07:42;;;;;;;4.57;1.52;;;23.40;97.90;;;;;;4141737;34;21849;-88
2021/01/07 10:10:11;;;;;;;10.07;1.83;;;23.00;99.30;;;;;;4149532;34;20078;-88
2021/01/07 10:12:39;;;;;;;8.88;1.85;;;23.00;99.90;;;;;;4142184;34;20044;-88
2021/01/07 10:15:07;;;;;;;8.45;1.50;;;23.20;99.90;;;;;;4142500;34;20095;-88
2021/01/07 10:17:36;;;;;;;8.10;1.67;;;23.20;99.90;;;;;;4125712;34;20065;-89
2021/01/07 10:20:09;;;;;;;6.65;1.67;;;23.10;99.90;;;;;;4141706;34;20111;-88
2021/01/07 10:22:38;;;;;;;6.80;2.55;;;23.00;99.90;;;;;;4130488;34;20091;-87
2021/01/07 10:25:07;;;;;;;4.25;1.92;;;23.70;99.90;;;;;;4144004;34;20083;-88
2021/01/07 10:27:36;;;;;;;10.73;2.78;;;23.60;99.30;;;;;;4138628;34;20060;-88
2021/01/07 10:30:05;;;;;;;7.22;2.62;;;23.20;99.70;;;;;;4141845;34;20098;-89
2021/01/07 10:32:34;;;;;;;5.93;2.72;;;23.10;99.90;;;;;;4120631;34;20172;-88
2021/01/07 10:35:03;;;;;;;10.25;1.62;;;23.00;99.90;;;;;;4136073;34;20096;-88
2021/01/07 10:37:33;;;;;;;9.05;2.22;;;22.70;99.90;;;;;;4135043;34;20096;-87
2021/01/07 10:40:04;;;;;;;7.00;1.65;;;22.60;99.90;;;;;;4138026;34;20114;-88
2021/01/07 10:42:33;;;;;;;11.60;2.03;;;22.40;99.90;;;;;;4134830;34;20052;-89
2021/01/07 10:45:02;;;;;;;10.43;1.45;;;22.10;99.90;;;;;;4133988;34;20056;-88
2021/01/07 10:47:37;;;;;;;10.65;3.65;;;21.70;99.90;;;;;;4141824;34;20102;-88
2021/01/07 10:50:11;;;;;;;13.00;4.40;;;21.50;99.90;;;;;;4140724;34;20083;-88
2021/01/07 10:52:45;;;;;;;7.65;1.80;;;21.20;99.90;;;;;;4140362;34;20049;-88
2021/01/07 10:55:29;;;;;;;9.82;2.15;;;21.10;99.90;;;;;;4148146;34;20099;-87
2021/01/07 10:58:19;;;;;;;17.42;2.25;;;21.10;99.90;;;;;;4140498;34;20528;-88
2021/01/07 11:01:08;;;;;;;9.95;1.50;;;20.90;99.90;;;;;;4146152;34;20780;-87
2021/01/07 11:04:03;;;;;;;10.45;1.65;;;20.90;99.90;;;;;;4142010;34;20075;-88
2021/01/07 11:06:36;;;;;;;11.65;2.20;;;20.80;99.90;;;;;;4139851;34;20065;-88
2021/01/07 11:09:14;;;;;;;8.05;1.77;;;20.60;99.90;;;;;;4128817;34;20107;-87
2021/01/07 11:11:49;;;;;;;6.60;1.87;;;20.40;99.90;;;;;;4134507;34;20141;-87
2021/01/07 11:14:48;;;;;;;9.50;2.22;;;20.40;99.90;;;;;;4141763;34;20096;-88
2021/01/07 11:17:28;;;;;;;17.45;3.65;;;20.30;99.90;;;;;;4139027;34;20061;-88
2021/01/07 11:19:59;;;;;;;20.73;2.55;;;20.30;99.90;;;;;;4139673;34;20107;-87
2021/01/07 11:22:30;;;;;;;9.93;2.08;;;20.30;99.90;;;;;;4145893;34;20056;-88
2021/01/07 11:25:00;;;;;;;4.40;1.42;;;20.20;99.90;;;;;;4139872;34;20142;-89
2021/01/07 11:27:31;;;;;;;7.90;1.85;;;20.20;99.90;;;;;;4146642;34;20444;-87
2021/01/07 11:30:03;;;;;;;8.52;2.40;;;20.10;99.90;;;;;;4137398;34;20113;-88
2021/01/07 11:32:37;;;;;;;13.70;2.45;;;20.10;99.90;;;;;;4144773;34;20080;-87
2021/01/07 11:35:09;;;;;;;10.18;1.92;;;20.10;99.90;;;;;;4140200;34;20555;-88
2021/01/07 11:38:13;;;;;;;12.02;2.00;;;20.10;99.90;;;;;;4146921;34;20069;-88
2021/01/07 11:40:57;;;;;;;16.15;2.20;;;20.00;99.90;;;;;;4144125;34;20057;-87
2021/01/07 11:43:50;;;;;;;16.87;2.12;;;20.00;99.90;;;;;;4151205;34;20064;-87
2021/01/07 11:46:19;;;;;;;9.70;2.12;;;20.00;99.90;;;;;;4144530;34;20088;-88
2021/01/07 11:49:07;;;;;;;14.65;3.20;;;20.00;99.90;;;;;;4126396;34;20416;-88
2021/01/07 11:51:38;;;;;;;9.45;2.45;;;19.90;99.90;;;;;;4139144;34;20065;-88
2021/01/07 11:54:08;;;;;;;16.40;2.47;;;19.90;99.90;;;;;;4147586;34;20126;-88
2021/01/07 11:56:38;;;;;;;13.57;2.33;;;19.90;99.90;;;;;;4156035;34;20502;-87
2021/01/07 11:59:09;;;;;;;22.40;2.85;;;19.90;99.90;;;;;;4143861;34;20048;-87
2021/01/07 12:01:37;;;;;;;19.30;3.55;;;19.90;99.90;;;;;;4158499;34;20071;-87
2021/01/07 12:04:13;;;;;;;15.88;2.78;;;19.80;99.90;;;;;;4152038;34;20128;-88
2021/01/07 12:06:55;;;;;;;19.05;2.58;;;19.80;99.90;;;;;;4132189;34;20496;-87
2021/01/07 12:09:38;;;;;;;15.23;3.80;;;19.80;99.90;;;;;;4140262;34;20138;-88
2021/01/07 12:12:10;;;;;;;19.02;2.65;;;19.80;99.90;;;;;;4140844;34;20113;-88
2021/01/07 12:14:51;;;;;;;16.65;2.58;;;19.70;99.90;;;;;;4143902;34;20096;-88
2021/01/07 12:17:19;;;;;;;11.98;2.87;;;19.70;99.90;;;;;;4141270;34;20163;-87
2021/01/07 12:19:49;;;;;;;11.12;2.15;;;19.70;99.90;;;;;;4143078;34;20246;-88
2021/01/07 12:22:21;;;;;;;10.98;1.87;;;19.70;99.90;;;;;;4146125;34;20103;-88
2021/01/07 12:25:05;;;;;;;21.25;3.03;;;19.60;99.90;;;;;;4142580;34;20067;-87
2021/01/07 12:27:40;;;;;;;13.27;2.45;;;19.50;99.90;;;;;;4136179;34;20049;-89
2021/01/07 12:30:18;;;;;;;10.63;2.10;;;19.40;99.90;;;;;;4131214;34;20085;-87
2021/01/07 12:33:12;;;;;;;9.68;1.23;;;19.30;99.90;;;;;;4128701;34;20061;-88
2021/01/07 12:35:50;;;;;;;10.20;2.25;;;19.30;99.90;;;;;;4148899;34;20079;-88
2021/01/07 12:38:54;;;;;;;13.52;1.75;;;19.20;99.90;;;;;;4143480;34;20115;-87
2021/01/07 12:41:29;;;;;;;16.17;2.00;;;19.20;99.90;;;;;;4142401;34;20077;-89
2021/01/07 12:43:58;;;;;;;8.48;2.17;;;19.10;99.90;;;;;;4149306;34;20084;-88
2021/01/07 12:46:33;;;;;;;9.98;1.95;;;19.00;99.90;;;;;;4144823;34;20085;-89
2021/01/07 12:49:02;;;;;;;11.18;1.52;;;19.00;99.90;;;;;;4149703;34;20048;-88
2021/01/07 12:51:31;;;;;;;7.20;5.32;;;18.90;99.90;;;;;;4127858;34;20069;-88
2021/01/07 12:53:59;;;;;;;4.15;1.33;;;18.80;99.90;;;;;;4147284;34;20621;-88
2021/01/07 12:56:36;;;;;;;7.80;1.00;;;18.60;99.90;;;;;;4139980;34;20122;-88
2021/01/07 12:59:10;;;;;;;7.30;4.22;;;18.40;99.90;;;;;;4133487;34;20068;-89
2021/01/07 13:01:52;;;;;;;3.75;3.12;;;18.30;99.90;;;;;;4144173;34;20109;-88
2021/01/07 13:05:04;;;;;;;5.78;3.47;;;18.10;99.90;;;;;;4672506;28;20079;31
2021/01/07 13:32:28;;;;;;;1.05;0.93;;;16.50;99.90;;;;;;4880090;29;20091;31
2021/01/07 13:34:58;;;;;;;0.30;0.30;;;16.50;99.90;;;;;;4148504;34;20138;-85
2021/01/07 13:37:26;;;;;;;0.93;0.40;;;16.60;99.90;;;;;;4149891;34;20081;-86
2021/01/07 13:39:55;;;;;;;0.30;0.30;;;16.70;99.90;;;;;;4145655;34;20845;-87
2021/01/07 13:42:29;;;;;;;0.43;0.43;;;16.70;99.90;;;;;;4155429;34;20060;-84
2021/01/07 13:44:59;;;;;;;30.33;28.67;;;16.90;99.90;;;;;;4157961;34;20429;-84
2021/01/07 13:47:33;;;;;;;2.03;2.03;;;17.00;99.90;;;;;;4149666;34;20181;-83
2021/01/07 13:50:08;;;;;;;0.40;0.40;;;17.10;99.90;;;;;;4138855;34;20064;-84
2021/01/07 13:52:40;;;;;;;2.27;2.03;;;17.20;99.90;;;;;;4158968;34;20086;-85
2021/01/07 13:55:13;;;;;;;13.87;13.23;;;17.20;99.90;;;;;;4130460;34;20061;-87
2021/01/07 13:57:42;;;;;;;13.00;12.32;;;17.10;99.90;;;;;;4154593;34;20065;-82
2021/01/07 14:00:12;;;;;;;10.30;9.70;;;17.10;99.90;;;;;;4146418;34;20068;-83
2021/01/07 14:02:45;;;;;;;1.37;0.40;;;17.10;99.90;;;;;;4153721;34;20127;-89
2021/01/07 14:05:14;;;;;;;2.45;2.37;;;17.20;99.90;;;;;;4135992;34;20108;-85
2021/01/07 14:07:58;;;;;;;15.20;14.50;;;17.40;99.90;;;;;;4145376;34;20100;-85
2021/01/07 14:10:35;;;;;;;12.98;12.07;;;18.60;99.90;;;;;;4147967;34;20091;-85
2021/01/07 14:13:06;;;;;;;4.12;1.00;;;19.50;99.90;;;;;;4153946;34;20100;-85
2021/01/07 14:15:34;;;;;;;1.25;0.88;;;20.00;99.90;;;;;;4157106;34;20060;-85
2021/01/07 14:18:04;;;;;;;5.22;1.45;;;20.40;99.90;;;;;;4149030;34;20053;-89
2021/01/07 14:20:32;;;;;;;2.53;1.83;;;20.60;99.90;;;;;;4146399;34;20082;-84
2021/01/07 14:23:04;;;;;;;8.02;6.60;;;20.90;99.90;;;;;;4149029;34;20460;-86
2021/01/07 14:25:34;;;;;;;9.70;8.80;;;20.80;99.90;;;;;;4149274;34;20086;-86
2021/01/07 14:28:26;;;;;;;3.92;1.20;;;20.80;99.90;;;;;;4143626;34;20065;-88
2021/01/07 14:30:54;;;;;;;5.97;2.05;;;20.80;99.90;;;;;;4139873;34;20068;-85
2021/01/07 14:33:23;;;;;;;3.05;1.17;;;20.80;99.90;;;;;;4153419;34;20119;-84
2021/01/07 14:35:52;;;;;;;5.53;4.12;;;20.90;99.90;;;;;;4143213;34;20056;-85
2021/01/07 14:38:21;;;;;;;1.60;0.70;;;20.90;99.90;;;;;;4148221;34;20129;-85
2021/01/07 14:40:50;;;;;;;1.20;0.80;;;20.90;99.90;;;;;;4147808;34;20146;-86
2021/01/07 14:43:18;;;;;;;5.97;1.37;;;21.00;99.90;;;;;;4144095;34;20061;-85
2021/01/07 14:45:48;;;;;;;3.45;1.55;;;20.90;99.90;;;;;;4141322;34;20068;-84
2021/01/07 14:48:16;;;;;;;4.37;1.40;;;20.80;99.90;;;;;;4150957;34;20131;-85
2021/01/07 14:50:45;;;;;;;8.65;1.48;;;20.70;99.90;;;;;;4156936;34;20177;-88
2021/01/07 14:53:20;;;;;;;5.68;1.50;;;20.80;99.90;;;;;;4141506;34;20053;-84
2021/01/07 14:55:50;;;;;;;12.02;10.80;;;21.00;99.90;;;;;;4151656;34;20107;-84
2021/01/07 14:58:40;;;;;;;23.33;21.48;;;21.00;99.90;;;;;;4143925;34;20068;-86
2021/01/07 15:01:11;;;;;;;21.65;19.75;;;21.10;99.90;;;;;;4142617;34;20072;-85